sensor_id;sensor_type;location;lat;lon;timestamp;pressure;altitude;pressure_sealevel;temperature;humidity
28921;BME280;16035;53.594;9.952;2023-06-26T00:00:05;101320.72;;;23.65;55.78
28921;BME280;16035;53.594;9.952;2023-06-26T00:02:06;101324.16;;;23.62;55.76
28921;BME280;16035;53.594;9.952;2023-06-26T00:04:07;101322.69;;;23.56;56.00
28921;BME280;16035;53.594;9.952;2023-06-26T00:06:07;101324.31;;;23.57;56.31
28921;BME280;16035;53.594;9.952;2023-06-26T00:08:07;101318.31;;;23.55;56.10
28921;BME280;16035;53.594;9.952;2023-06-26T00:10:08;101317.69;;;23.50;56.43
28921;BME280;16035;53.594;9.952;2023-06-26T00:12:08;101316.06;;;23.49;56.16
28921;BME280;16035;53.594;9.952;2023-06-26T00:14:09;101316.88;;;23.49;56.33
28921;BME280;16035;53.594;9.952;2023-06-26T00:16:09;101309.03;;;23.51;56.00
28921;BME280;16035;53.594;9.952;2023-06-26T00:18:10;101317.84;;;23.53;56.04
28921;BME280;16035;53.594;9.952;2023-06-26T00:20:10;101308.22;;;23.51;56.42
28921;BME280;16035;53.594;9.952;2023-06-26T00:22:11;101316.06;;;23.49;56.36
28921;BME280;16035;53.594;9.952;2023-06-26T00:24:12;101307.09;;;23.43;56.40
28921;BME280;16035;53.594;9.952;2023-06-26T00:26:13;101308.75;;;23.44;56.55
28921;BME280;16035;53.594;9.952;2023-06-26T00:28:13;101301.09;;;23.41;56.86
28921;BME280;16035;53.594;9.952;2023-06-26T00:30:13;101292.44;;;23.42;56.36
28921;BME280;16035;53.594;9.952;2023-06-26T00:32:14;101296.16;;;23.46;56.40
28921;BME280;16035;53.594;9.952;2023-06-26T00:34:15;101289.59;;;23.51;56.30
28921;BME280;16035;53.594;9.952;2023-06-26T00:36:15;101295.44;;;23.58;56.14
28921;BME280;16035;53.594;9.952;2023-06-26T00:38:15;101296.56;;;23.57;56.33
28921;BME280;16035;53.594;9.952;2023-06-26T00:40:17;101286.78;;;23.60;55.91
28921;BME280;16035;53.594;9.952;2023-06-26T00:42:17;101293.94;;;23.61;55.84
28921;BME280;16035;53.594;9.952;2023-06-26T00:44:18;101296.06;;;23.64;55.80
28921;BME280;16035;53.594;9.952;2023-06-26T00:46:18;101285.47;;;23.57;55.95
28921;BME280;16035;53.594;9.952;2023-06-26T00:48:18;101284.19;;;23.55;56.09
28921;BME280;16035;53.594;9.952;2023-06-26T00:50:19;101285.66;;;23.52;56.37
28921;BME280;16035;53.594;9.952;2023-06-26T00:52:20;101283.59;;;23.49;55.95
28921;BME280;16035;53.594;9.952;2023-06-26T00:54:20;101280.47;;;23.51;56.01
28921;BME280;16035;53.594;9.952;2023-06-26T00:56:22;101280.13;;;23.52;55.94
28921;BME280;16035;53.594;9.952;2023-06-26T00:58:24;101281.44;;;23.55;56.09
28921;BME280;16035;53.594;9.952;2023-06-26T01:00:24;101271.50;;;23.54;55.83
28921;BME280;16035;53.594;9.952;2023-06-26T01:02:25;101272.63;;;23.53;55.92
28921;BME280;16035;53.594;9.952;2023-06-26T01:04:27;101275.72;;;23.51;55.96
28921;BME280;16035;53.594;9.952;2023-06-26T01:06:33;101272.16;;;23.51;56.04
28921;BME280;16035;53.594;9.952;2023-06-26T01:08:36;101272.00;;;23.47;56.08
28921;BME280;16035;53.594;9.952;2023-06-26T01:10:37;101272.50;;;23.49;56.21
28921;BME280;16035;53.594;9.952;2023-06-26T01:12:37;101267.41;;;23.51;55.85
28921;BME280;16035;53.594;9.952;2023-06-26T01:14:39;101269.22;;;23.47;56.12
28921;BME280;16035;53.594;9.952;2023-06-26T01:16:40;101269.22;;;23.47;55.78
28921;BME280;16035;53.594;9.952;2023-06-26T01:18:42;101261.25;;;23.45;56.12
28921;BME280;16035;53.594;9.952;2023-06-26T01:20:43;101267.75;;;23.50;56.29
28921;BME280;16035;53.594;9.952;2023-06-26T01:27:09;101253.41;;;23.48;56.07
28921;BME280;16035;53.594;9.952;2023-06-26T01:29:10;101260.09;;;23.46;55.92
28921;BME280;16035;53.594;9.952;2023-06-26T01:31:13;101254.69;;;23.50;56.04
28921;BME280;16035;53.594;9.952;2023-06-26T01:33:15;101246.03;;;23.52;56.17
28921;BME280;16035;53.594;9.952;2023-06-26T01:35:15;101250.41;;;23.53;55.70
28921;BME280;16035;53.594;9.952;2023-06-26T01:37:16;101248.47;;;23.53;56.11
28921;BME280;16035;53.594;9.952;2023-06-26T01:39:18;101239.81;;;23.55;55.71
28921;BME280;16035;53.594;9.952;2023-06-26T01:41:19;101239.31;;;23.53;55.60
28921;BME280;16035;53.594;9.952;2023-06-26T01:45:32;101227.75;;;23.51;55.95
28921;BME280;16035;53.594;9.952;2023-06-26T01:47:35;101230.19;;;23.52;55.90
28921;BME280;16035;53.594;9.952;2023-06-26T01:50:00;101226.97;;;23.50;56.30
28921;BME280;16035;53.594;9.952;2023-06-26T01:52:21;101229.13;;;23.44;56.10
28921;BME280;16035;53.594;9.952;2023-06-26T01:54:30;101217.75;;;23.37;56.04
28921;BME280;16035;53.594;9.952;2023-06-26T01:56:32;101216.94;;;23.37;55.90
28921;BME280;16035;53.594;9.952;2023-06-26T01:58:33;101219.69;;;23.37;55.95
28921;BME280;16035;53.594;9.952;2023-06-26T02:00:34;101216.13;;;23.36;55.84
28921;BME280;16035;53.594;9.952;2023-06-26T02:02:34;101219.22;;;23.35;55.95
28921;BME280;16035;53.594;9.952;2023-06-26T02:04:35;101219.09;;;23.31;55.98
28921;BME280;16035;53.594;9.952;2023-06-26T02:06:37;101214.22;;;23.28;56.33
28921;BME280;16035;53.594;9.952;2023-06-26T02:08:37;101218.44;;;23.26;56.35
28921;BME280;16035;53.594;9.952;2023-06-26T02:10:38;101210.00;;;23.22;56.45
28921;BME280;16035;53.594;9.952;2023-06-26T02:12:39;101209.38;;;23.16;56.36
28921;BME280;16035;53.594;9.952;2023-06-26T02:14:39;101208.91;;;23.14;56.26
28921;BME280;16035;53.594;9.952;2023-06-26T02:16:39;101204.84;;;23.12;56.54
28921;BME280;16035;53.594;9.952;2023-06-26T02:18:40;101207.28;;;23.13;56.59
28921;BME280;16035;53.594;9.952;2023-06-26T02:20:41;101202.56;;;23.14;56.81
28921;BME280;16035;53.594;9.952;2023-06-26T02:22:41;101204.84;;;23.12;56.73
28921;BME280;16035;53.594;9.952;2023-06-26T02:24:43;101202.06;;;23.12;56.61
28921;BME280;16035;53.594;9.952;2023-06-26T02:26:43;101193.44;;;23.13;56.87
28921;BME280;16035;53.594;9.952;2023-06-26T02:28:43;101196.19;;;23.13;56.37
28921;BME280;16035;53.594;9.952;2023-06-26T02:30:44;101202.56;;;23.14;56.56
28921;BME280;16035;53.594;9.952;2023-06-26T02:32:44;101190.50;;;23.10;56.67
28921;BME280;16035;53.594;9.952;2023-06-26T02:34:45;101190.84;;;23.08;56.70
28921;BME280;16035;53.594;9.952;2023-06-26T02:36:45;101189.69;;;23.09;56.69
28921;BME280;16035;53.594;9.952;2023-06-26T02:38:45;101186.13;;;23.09;56.53
28921;BME280;16035;53.594;9.952;2023-06-26T02:40:46;101184.16;;;23.09;56.71
28921;BME280;16035;53.594;9.952;2023-06-26T02:42:46;101181.38;;;23.09;56.88
28921;BME280;16035;53.594;9.952;2023-06-26T02:44:46;101192.47;;;23.09;56.48
28921;BME280;16035;53.594;9.952;2023-06-26T02:46:47;101180.22;;;23.10;56.53
28921;BME280;16035;53.594;9.952;2023-06-26T02:48:47;101184.97;;;23.10;56.60
28921;BME280;16035;53.594;9.952;2023-06-26T02:50:47;101183.19;;;23.05;56.51
28921;BME280;16035;53.594;9.952;2023-06-26T02:52:48;101187.13;;;23.04;56.81
28921;BME280;16035;53.594;9.952;2023-06-26T02:54:52;101183.50;;;23.04;56.66
28921;BME280;16035;53.594;9.952;2023-06-26T02:56:52;101182.69;;;23.03;56.68
28921;BME280;16035;53.594;9.952;2023-06-26T02:58:53;101180.44;;;23.05;56.56
28921;BME280;16035;53.594;9.952;2023-06-26T03:00:53;101170.50;;;23.04;56.60
28921;BME280;16035;53.594;9.952;2023-06-26T03:02:53;101174.88;;;23.05;56.31
28921;BME280;16035;53.594;9.952;2023-06-26T03:04:54;101169.34;;;23.05;56.71
28921;BME280;16035;53.594;9.952;2023-06-26T03:06:54;101170.00;;;23.02;56.37
28921;BME280;16035;53.594;9.952;2023-06-26T03:08:54;101168.72;;;23.00;56.88
28921;BME280;16035;53.594;9.952;2023-06-26T03:10:55;101166.63;;;22.97;56.59
28921;BME280;16035;53.594;9.952;2023-06-26T03:12:55;101173.63;;;22.94;56.60
28921;BME280;16035;53.594;9.952;2023-06-26T03:14:55;101166.81;;;22.91;56.63
28921;BME280;16035;53.594;9.952;2023-06-26T03:16:55;101166.00;;;22.91;56.81
28921;BME280;16035;53.594;9.952;2023-06-26T03:18:58;101162.06;;;22.92;56.98
28921;BME280;16035;53.594;9.952;2023-06-26T03:20:58;101158.50;;;22.91;56.58
28921;BME280;16035;53.594;9.952;2023-06-26T03:22:59;101161.25;;;22.91;56.95
28921;BME280;16035;53.594;9.952;2023-06-26T03:25:02;101157.00;;;22.94;57.06
28921;BME280;16035;53.594;9.952;2023-06-26T03:27:02;101159.75;;;22.94;56.51
28921;BME280;16035;53.594;9.952;2023-06-26T03:29:03;101155.22;;;22.89;56.61
28921;BME280;16035;53.594;9.952;2023-06-26T03:31:03;101156.69;;;22.87;56.88
28921;BME280;16035;53.594;9.952;2023-06-26T03:33:03;101164.19;;;22.86;56.65
28921;BME280;16035;53.594;9.952;2023-06-26T03:35:04;101159.13;;;22.88;56.56
28921;BME280;16035;53.594;9.952;2023-06-26T03:37:04;101158.31;;;22.88;56.72
28921;BME280;16035;53.594;9.952;2023-06-26T03:39:05;101157.81;;;22.86;56.96
28921;BME280;16035;53.594;9.952;2023-06-26T03:41:05;101156.53;;;22.83;57.06
28921;BME280;16035;53.594;9.952;2023-06-26T03:43:06;101153.78;;;22.83;56.78
28921;BME280;16035;53.594;9.952;2023-06-26T03:45:06;101151.81;;;22.84;56.97
28921;BME280;16035;53.594;9.952;2023-06-26T03:47:07;101152.28;;;22.86;56.87
28921;BME280;16035;53.594;9.952;2023-06-26T03:49:07;101141.69;;;22.88;56.96
28921;BME280;16035;53.594;9.952;2023-06-26T03:51:07;101143.66;;;22.87;56.97
28921;BME280;16035;53.594;9.952;2023-06-26T03:53:08;101140.53;;;22.89;56.63
28921;BME280;16035;53.594;9.952;2023-06-26T03:55:08;101131.75;;;22.87;56.89
28921;BME280;16035;53.594;9.952;2023-06-26T03:57:09;101140.88;;;22.87;56.89
28921;BME280;16035;53.594;9.952;2023-06-26T03:59:10;101133.38;;;22.88;57.08
28921;BME280;16035;53.594;9.952;2023-06-26T04:01:10;101131.75;;;22.87;56.99
28921;BME280;16035;53.594;9.952;2023-06-26T04:03:10;101125.06;;;22.88;56.92
28921;BME280;16035;53.594;9.952;2023-06-26T04:05:11;101129.16;;;22.90;56.99
28921;BME280;16035;53.594;9.952;2023-06-26T04:07:11;101128.00;;;22.91;56.99
28921;BME280;16035;53.594;9.952;2023-06-26T04:09:11;101126.84;;;22.92;56.71
28921;BME280;16035;53.594;9.952;2023-06-26T04:11:12;101126.03;;;22.92;56.82
28921;BME280;16035;53.594;9.952;2023-06-26T04:13:12;101125.88;;;22.88;56.76
28921;BME280;16035;53.594;9.952;2023-06-26T04:15:14;101129.66;;;22.84;56.99
28921;BME280;16035;53.594;9.952;2023-06-26T04:17:14;101119.38;;;22.84;56.88
28921;BME280;16035;53.594;9.952;2023-06-26T04:19:14;101124.56;;;22.86;57.27
28921;BME280;16035;53.594;9.952;2023-06-26T04:21:15;101118.38;;;22.89;57.27
28921;BME280;16035;53.594;9.952;2023-06-26T04:23:16;101116.13;;;22.91;56.74
28921;BME280;16035;53.594;9.952;2023-06-26T04:25:17;101113.81;;;22.93;57.10
28921;BME280;16035;53.594;9.952;2023-06-26T04:27:18;101112.00;;;22.97;56.86
28921;BME280;16035;53.594;9.952;2023-06-26T04:29:18;101108.88;;;22.99;56.85
28921;BME280;16035;53.594;9.952;2023-06-26T04:31:18;101103.34;;;22.99;56.92
28921;BME280;16035;53.594;9.952;2023-06-26T04:33:19;101108.22;;;23.02;57.02
28921;BME280;16035;53.594;9.952;2023-06-26T04:35:19;101103.13;;;23.04;57.19
28921;BME280;16035;53.594;9.952;2023-06-26T04:37:22;101106.25;;;23.02;57.19
28921;BME280;16035;53.594;9.952;2023-06-26T04:39:22;101099.75;;;22.98;57.10
28921;BME280;16035;53.594;9.952;2023-06-26T04:41:23;101093.75;;;22.96;57.02
28921;BME280;16035;53.594;9.952;2023-06-26T04:43:23;101099.75;;;22.98;57.15
28921;BME280;16035;53.594;9.952;2023-06-26T04:45:23;101096.66;;;23.00;57.07
28921;BME280;16035;53.594;9.952;2023-06-26T04:47:24;101091.72;;;23.05;57.16
28921;BME280;16035;53.594;9.952;2023-06-26T04:49:24;101096.59;;;23.08;57.13
28921;BME280;16035;53.594;9.952;2023-06-26T04:51:25;101092.69;;;23.09;57.00
28921;BME280;16035;53.594;9.952;2023-06-26T04:53:27;101086.78;;;23.11;56.89
28921;BME280;16035;53.594;9.952;2023-06-26T04:55:27;101093.63;;;23.13;57.04
28921;BME280;16035;53.594;9.952;2023-06-26T04:57:28;101094.09;;;23.15;56.78
28921;BME280;16035;53.594;9.952;2023-06-26T04:59:28;101083.00;;;23.15;56.80
28921;BME280;16035;53.594;9.952;2023-06-26T05:01:29;101087.06;;;23.18;56.99
28921;BME280;16035;53.594;9.952;2023-06-26T05:03:29;101082.00;;;23.20;56.90
28921;BME280;16035;53.594;9.952;2023-06-26T05:05:30;101078.06;;;23.21;57.05
28921;BME280;16035;53.594;9.952;2023-06-26T05:07:30;101080.97;;;23.25;56.66
28921;BME280;16035;53.594;9.952;2023-06-26T05:09:30;101076.72;;;23.27;56.79
28921;BME280;16035;53.594;9.952;2023-06-26T05:11:31;101076.88;;;23.31;56.72
28921;BME280;16035;53.594;9.952;2023-06-26T05:13:31;101076.66;;;23.36;56.56
28921;BME280;16035;53.594;9.952;2023-06-26T05:15:31;101077.59;;;23.40;57.04
28921;BME280;16035;53.594;9.952;2023-06-26T05:17:32;101076.91;;;23.43;56.66
28921;BME280;16035;53.594;9.952;2023-06-26T05:19:32;101072.66;;;23.45;56.68
28921;BME280;16035;53.594;9.952;2023-06-26T05:21:33;101066.06;;;23.50;56.74
28921;BME280;16035;53.594;9.952;2023-06-26T05:23:35;101061.47;;;23.54;56.34
28921;BME280;16035;53.594;9.952;2023-06-26T05:25:35;101051.53;;;23.53;56.47
28921;BME280;16035;53.594;9.952;2023-06-26T05:27:37;101047.91;;;23.53;56.34
28921;BME280;16035;53.594;9.952;2023-06-26T05:29:37;101048.88;;;23.57;56.22
28921;BME280;16035;53.594;9.952;2023-06-26T05:31:41;101046.56;;;23.59;56.33
28921;BME280;16035;53.594;9.952;2023-06-26T05:33:44;101048.31;;;23.63;56.48
28921;BME280;16035;53.594;9.952;2023-06-26T05:35:45;101044.91;;;23.66;56.07
28921;BME280;16035;53.594;9.952;2023-06-26T05:37:48;101037.50;;;23.70;56.06
28921;BME280;16035;53.594;9.952;2023-06-26T05:39:48;101033.22;;;23.73;55.69
28921;BME280;16035;53.594;9.952;2023-06-26T05:41:49;101036.94;;;23.77;55.93
28921;BME280;16035;53.594;9.952;2023-06-26T05:43:50;101032.19;;;23.78;55.46
28921;BME280;16035;53.594;9.952;2023-06-26T05:45:50;101035.09;;;23.81;55.58
28921;BME280;16035;53.594;9.952;2023-06-26T05:47:50;101032.78;;;23.83;55.72
28921;BME280;16035;53.594;9.952;2023-06-26T05:49:51;101035.25;;;23.85;55.43
28921;BME280;16035;53.594;9.952;2023-06-26T05:51:51;101030.50;;;23.85;55.40
28921;BME280;16035;53.594;9.952;2023-06-26T05:53:52;101030.13;;;23.87;55.57
28921;BME280;16035;53.594;9.952;2023-06-26T05:55:52;101024.72;;;23.90;55.32
28921;BME280;16035;53.594;9.952;2023-06-26T05:57:53;101020.09;;;23.94;55.32
28921;BME280;16035;53.594;9.952;2023-06-26T05:59:55;101020.22;;;23.98;54.76
28921;BME280;16035;53.594;9.952;2023-06-26T06:01:56;101020.22;;;23.98;55.28
28921;BME280;16035;53.594;9.952;2023-06-26T06:03:56;101021.16;;;24.02;55.05
28921;BME280;16035;53.594;9.952;2023-06-26T06:05:57;101023.22;;;24.05;55.14
28921;BME280;16035;53.594;9.952;2023-06-26T06:07:57;101014.91;;;24.05;55.10
28921;BME280;16035;53.594;9.952;2023-06-26T06:09:58;101014.22;;;24.08;55.03
28921;BME280;16035;53.594;9.952;2023-06-26T06:11:58;101014.78;;;24.14;55.02
28921;BME280;16035;53.594;9.952;2023-06-26T06:13:59;101017.00;;;24.20;54.91
28921;BME280;16035;53.594;9.952;2023-06-26T06:16:00;101014.31;;;24.24;54.79
28921;BME280;16035;53.594;9.952;2023-06-26T06:18:00;101012.59;;;24.32;54.97
28921;BME280;16035;53.594;9.952;2023-06-26T06:20:02;101021.19;;;24.39;54.70
28921;BME280;16035;53.594;9.952;2023-06-26T06:22:03;101009.72;;;24.40;54.60
28921;BME280;16035;53.594;9.952;2023-06-26T06:24:04;101011.81;;;24.43;54.46
28921;BME280;16035;53.594;9.952;2023-06-26T06:26:04;101004.41;;;24.48;54.30
28921;BME280;16035;53.594;9.952;2023-06-26T06:28:05;101004.06;;;24.49;54.34
28921;BME280;16035;53.594;9.952;2023-06-26T06:30:06;101001.75;;;24.51;54.11
28921;BME280;16035;53.594;9.952;2023-06-26T06:32:06;100997.56;;;24.57;54.17
28921;BME280;16035;53.594;9.952;2023-06-26T06:34:07;100994.97;;;24.77;54.14
28921;BME280;16035;53.594;9.952;2023-06-26T06:36:07;100995.19;;;24.84;53.50
28921;BME280;16035;53.594;9.952;2023-06-26T06:38:08;100990.66;;;24.91;53.81
28921;BME280;16035;53.594;9.952;2023-06-26T06:40:11;100993.03;;;25.05;53.77
28921;BME280;16035;53.594;9.952;2023-06-26T06:42:12;100980.63;;;25.15;53.39
28921;BME280;16035;53.594;9.952;2023-06-26T06:44:12;100975.63;;;25.20;53.24
28921;BME280;16035;53.594;9.952;2023-06-26T06:46:12;100963.78;;;25.24;53.22
28921;BME280;16035;53.594;9.952;2023-06-26T06:48:13;100970.06;;;25.20;53.23
28921;BME280;16035;53.594;9.952;2023-06-26T06:50:13;100967.97;;;25.17;53.44
28921;BME280;16035;53.594;9.952;2023-06-26T06:52:16;100967.97;;;25.17;52.97
28921;BME280;16035;53.594;9.952;2023-06-26T06:54:16;100963.94;;;25.15;53.17
28921;BME280;16035;53.594;9.952;2023-06-26T06:56:17;100952.81;;;25.15;53.29
28921;BME280;16035;53.594;9.952;2023-06-26T06:58:17;100949.31;;;25.18;53.19
28921;BME280;16035;53.594;9.952;2023-06-26T07:00:19;100955.78;;;25.22;53.08
28921;BME280;16035;53.594;9.952;2023-06-26T07:02:19;100953.47;;;25.24;53.19
28921;BME280;16035;53.594;9.952;2023-06-26T07:04:20;100963.53;;;25.29;53.50
28921;BME280;16035;53.594;9.952;2023-06-26T07:06:20;100956.81;;;25.30;53.28
28921;BME280;16035;53.594;9.952;2023-06-26T07:08:20;100955.28;;;25.32;53.34
28921;BME280;16035;53.594;9.952;2023-06-26T07:10:21;100958.63;;;25.38;53.13
28921;BME280;16035;53.594;9.952;2023-06-26T07:12:21;100954.75;;;25.42;53.08
28921;BME280;16035;53.594;9.952;2023-06-26T07:14:21;100952.78;;;25.43;52.79
28921;BME280;16035;53.594;9.952;2023-06-26T07:16:22;100952.53;;;25.48;52.91
28921;BME280;16035;53.594;9.952;2023-06-26T07:18:22;100954.97;;;25.50;52.79
28921;BME280;16035;53.594;9.952;2023-06-26T07:20:22;100945.19;;;25.56;53.03
28921;BME280;16035;53.594;9.952;2023-06-26T07:22:23;100949.78;;;25.64;52.71
28921;BME280;16035;53.594;9.952;2023-06-26T07:24:23;100947.41;;;25.66;52.76
28921;BME280;16035;53.594;9.952;2023-06-26T07:26:23;100944.38;;;25.71;52.80
28921;BME280;16035;53.594;9.952;2023-06-26T07:28:24;100945.41;;;25.79;52.96
28921;BME280;16035;53.594;9.952;2023-06-26T07:30:25;100947.00;;;25.80;52.39
28921;BME280;16035;53.594;9.952;2023-06-26T07:32:25;100948.84;;;25.76;52.12
28921;BME280;16035;53.594;9.952;2023-06-26T07:34:25;100950.84;;;25.75;52.22
28921;BME280;16035;53.594;9.952;2023-06-26T07:36:26;100951.50;;;25.84;52.43
28921;BME280;16035;53.594;9.952;2023-06-26T07:38:26;100941.53;;;25.99;52.11
28921;BME280;16035;53.594;9.952;2023-06-26T07:40:27;100945.38;;;26.10;52.18
28921;BME280;16035;53.594;9.952;2023-06-26T07:42:27;100942.91;;;26.25;52.14
28921;BME280;16035;53.594;9.952;2023-06-26T07:44:28;100946.91;;;26.43;51.98
28921;BME280;16035;53.594;9.952;2023-06-26T07:46:28;100936.75;;;26.51;51.56
28921;BME280;16035;53.594;9.952;2023-06-26T07:48:28;100936.94;;;26.58;51.32
28921;BME280;16035;53.594;9.952;2023-06-26T07:50:29;100941.31;;;26.59;51.24
28921;BME280;16035;53.594;9.952;2023-06-26T07:52:29;100938.03;;;26.73;51.16
28921;BME280;16035;53.594;9.952;2023-06-26T07:54:30;100931.59;;;26.88;51.37
28921;BME280;16035;53.594;9.952;2023-06-26T07:56:31;100939.28;;;26.94;50.93
28921;BME280;16035;53.594;9.952;2023-06-26T07:58:31;100940.84;;;27.11;51.08
28921;BME280;16035;53.594;9.952;2023-06-26T08:00:31;100932.31;;;27.24;50.90
28921;BME280;16035;53.594;9.952;2023-06-26T08:02:32;100931.03;;;27.40;51.10
28921;BME280;16035;53.594;9.952;2023-06-26T08:04:32;100926.75;;;27.46;50.33
28921;BME280;16035;53.594;9.952;2023-06-26T08:06:33;100916.81;;;27.49;50.19
28921;BME280;16035;53.594;9.952;2023-06-26T08:08:37;100919.75;;;27.56;50.09
28921;BME280;16035;53.594;9.952;2023-06-26T08:10:37;100907.09;;;27.62;50.27
28921;BME280;16035;53.594;9.952;2023-06-26T08:12:37;100905.75;;;27.76;50.22
28921;BME280;16035;53.594;9.952;2023-06-26T08:14:40;100901.31;;;27.98;50.14
28921;BME280;16035;53.594;9.952;2023-06-26T08:16:41;100905.34;;;28.00;49.48
28921;BME280;16035;53.594;9.952;2023-06-26T08:18:42;100898.88;;;27.96;48.96
28921;BME280;16035;53.594;9.952;2023-06-26T08:20:42;100896.16;;;28.00;48.87
28921;BME280;16035;53.594;9.952;2023-06-26T08:22:43;100890.22;;;27.78;48.87
28921;BME280;16035;53.594;9.952;2023-06-26T08:24:44;100885.53;;;27.86;49.24
28921;BME280;16035;53.594;9.952;2023-06-26T08:26:46;100894.44;;;28.18;49.50
28921;BME280;16035;53.594;9.952;2023-06-26T08:28:46;100896.50;;;28.51;49.38
28921;BME280;16035;53.594;9.952;2023-06-26T08:30:47;100893.72;;;28.85;48.88
28921;BME280;16035;53.594;9.952;2023-06-26T08:32:47;100890.00;;;29.07;48.35
28921;BME280;16035;53.594;9.952;2023-06-26T08:34:47;100888.63;;;29.31;47.42
28921;BME280;16035;53.594;9.952;2023-06-26T08:36:48;100894.31;;;29.38;47.19
28921;BME280;16035;53.594;9.952;2023-06-26T08:38:48;100900.72;;;29.39;47.19
28921;BME280;16035;53.594;9.952;2023-06-26T08:40:48;100895.97;;;29.46;47.49
28921;BME280;16035;53.594;9.952;2023-06-26T08:42:50;100903.50;;;29.39;47.08
28921;BME280;16035;53.594;9.952;2023-06-26T08:44:53;100918.03;;;29.14;46.83
28921;BME280;16035;53.594;9.952;2023-06-26T08:46:53;100920.91;;;28.88;47.17
28921;BME280;16035;53.594;9.952;2023-06-26T08:48:57;100946.19;;;28.65;47.07
28921;BME280;16035;53.594;9.952;2023-06-26T08:51:05;100949.72;;;28.58;47.07
28921;BME280;16035;53.594;9.952;2023-06-26T08:53:22;100950.94;;;28.61;47.24
28921;BME280;16035;53.594;9.952;2023-06-26T08:55:23;100960.66;;;29.01;47.68
28921;BME280;16035;53.594;9.952;2023-06-26T08:57:26;100960.75;;;29.45;47.67
28921;BME280;16035;53.594;9.952;2023-06-26T08:59:27;100965.00;;;29.69;46.40
28921;BME280;16035;53.594;9.952;2023-06-26T09:01:27;100965.31;;;29.57;45.32
28921;BME280;16035;53.594;9.952;2023-06-26T09:03:28;100960.25;;;29.73;45.95
28921;BME280;16035;53.594;9.952;2023-06-26T09:05:28;100963.88;;;29.74;45.62
28921;BME280;16035;53.594;9.952;2023-06-26T09:07:29;100961.66;;;29.97;45.49
28921;BME280;16035;53.594;9.952;2023-06-26T09:09:29;100963.84;;;30.21;45.11
28921;BME280;16035;53.594;9.952;2023-06-26T09:11:30;100959.63;;;30.45;45.41
28921;BME280;16035;53.594;9.952;2023-06-26T09:13:30;100961.28;;;30.57;44.75
28921;BME280;16035;53.594;9.952;2023-06-26T09:15:43;100966.25;;;30.85;44.17
28921;BME280;16035;53.594;9.952;2023-06-26T09:17:44;100973.84;;;30.85;44.20
28921;BME280;16035;53.594;9.952;2023-06-26T09:19:45;100986.38;;;30.36;43.43
28921;BME280;16035;53.594;9.952;2023-06-26T09:21:49;100984.91;;;30.05;44.14
28921;BME280;16035;53.594;9.952;2023-06-26T09:23:49;100984.31;;;29.81;44.59
28921;BME280;16035;53.594;9.952;2023-06-26T09:25:50;100999.94;;;29.45;44.46
28921;BME280;16035;53.594;9.952;2023-06-26T09:27:51;100996.84;;;29.54;45.19
28921;BME280;16035;53.594;9.952;2023-06-26T09:29:52;101002.25;;;29.36;44.79
28921;BME280;16035;53.594;9.952;2023-06-26T09:31:52;101004.59;;;29.30;45.54
28921;BME280;16035;53.594;9.952;2023-06-26T09:33:58;101010.97;;;28.97;45.34
28921;BME280;16035;53.594;9.952;2023-06-26T09:35:59;101017.25;;;28.60;45.73
28921;BME280;16035;53.594;9.952;2023-06-26T09:38:00;101030.53;;;28.17;46.07
28921;BME280;16035;53.594;9.952;2023-06-26T09:40:00;101024.34;;;27.82;46.37
28921;BME280;16035;53.594;9.952;2023-06-26T09:42:01;101030.69;;;27.59;46.96
28921;BME280;16035;53.594;9.952;2023-06-26T09:44:02;101020.09;;;27.49;47.57
28921;BME280;16035;53.594;9.952;2023-06-26T09:46:03;101034.50;;;27.51;47.64
28921;BME280;16035;53.594;9.952;2023-06-26T09:48:04;101046.78;;;27.46;47.48
28921;BME280;16035;53.594;9.952;2023-06-26T09:50:05;101047.88;;;27.23;47.99
28921;BME280;16035;53.594;9.952;2023-06-26T09:52:05;101049.44;;;27.04;48.67
28921;BME280;16035;53.594;9.952;2023-06-26T09:54:06;101063.16;;;26.93;49.51
28921;BME280;16035;53.594;9.952;2023-06-26T09:56:07;101057.63;;;26.78;49.25
28921;BME280;16035;53.594;9.952;2023-06-26T09:58:08;101061.47;;;26.54;49.50
28921;BME280;16035;53.594;9.952;2023-06-26T10:00:10;101064.50;;;26.33;50.01
28921;BME280;16035;53.594;9.952;2023-06-26T10:02:10;101063.44;;;26.21;50.44
28921;BME280;16035;53.594;9.952;2023-06-26T10:04:11;101065.03;;;26.07;50.77
28921;BME280;16035;53.594;9.952;2023-06-26T10:06:12;101071.13;;;25.96;50.82
28921;BME280;16035;53.594;9.952;2023-06-26T10:08:13;101075.97;;;25.84;51.33
28921;BME280;16035;53.594;9.952;2023-06-26T10:10:16;101087.00;;;25.80;51.40
28921;BME280;16035;53.594;9.952;2023-06-26T10:12:27;101092.00;;;25.75;52.03
28921;BME280;16035;53.594;9.952;2023-06-26T10:14:33;101088.13;;;25.63;52.11
28921;BME280;16035;53.594;9.952;2023-06-26T10:16:34;101098.47;;;25.51;52.50
28921;BME280;16035;53.594;9.952;2023-06-26T10:18:39;101117.78;;;25.31;53.06
28921;BME280;16035;53.594;9.952;2023-06-26T10:20:40;101136.69;;;25.13;53.45
28921;BME280;16035;53.594;9.952;2023-06-26T10:22:47;101147.13;;;24.80;54.61
28921;BME280;16035;53.594;9.952;2023-06-26T10:24:49;101152.69;;;24.43;54.80
28921;BME280;16035;53.594;9.952;2023-06-26T10:26:53;101174.56;;;24.11;55.31
28921;BME280;16035;53.594;9.952;2023-06-26T10:28:56;101172.97;;;23.89;57.19
28921;BME280;16035;53.594;9.952;2023-06-26T10:30:58;101173.59;;;23.74;57.58
28921;BME280;16035;53.594;9.952;2023-06-26T10:32:59;101173.38;;;23.58;58.09
28921;BME280;16035;53.594;9.952;2023-06-26T10:35:00;101170.72;;;23.41;58.47
28921;BME280;16035;53.594;9.952;2023-06-26T10:37:03;101174.22;;;23.29;59.26
28921;BME280;16035;53.594;9.952;2023-06-26T10:39:04;101169.94;;;23.11;60.48